SWA1715 KMCO-KALB
Flight info
| Callsign | SWA1715 |
|---|---|
| Flight time | N/A |
| Altitude | 6000 |
| Route | FATHE4 VIYAP Q87 GEARS BBOBO Q22 LLUND TRUDE/N0377F160 V487 BOWAN/N0382F170 V487 CANAN |
| Aircraft | B737/M-SDE2E3FGHIRWXY/LB1 |
Departure
| Time | N/A |
|---|---|
| Airport | Orlando International Airport (KMCO) |
Arrival
| Time | 2026-05-04 20:28 |
|---|---|
| Airport | Albany International Airport (KALB) |
| Time | Latitude | Longitude | Altitude | Speed | Heading |
|---|---|---|---|---|---|
| 2026-05-04 20:18 | 42.62982 | -73.59859 | 5981 ft | 214 kts | 350° |
| 2026-05-04 20:19 | 42.64463 | -73.59960 | 5985 ft | 212 kts | 350° |
| 2026-05-04 20:19 | 42.65940 | -73.60058 | 5986 ft | 212 kts | 350° |
| 2026-05-04 20:19 | 42.67414 | -73.60156 | 5986 ft | 211 kts | 350° |
| 2026-05-04 20:19 | 42.68887 | -73.60254 | 5877 ft | 216 kts | 350° |
| 2026-05-04 20:20 | 42.70431 | -73.60370 | 5380 ft | 226 kts | 350° |
| 2026-05-04 20:20 | 42.72022 | -73.60495 | 4906 ft | 227 kts | 350° |
| 2026-05-04 20:20 | 42.73525 | -73.60605 | 4493 ft | 209 kts | 350° |
| 2026-05-04 20:20 | 42.74966 | -73.60700 | 4071 ft | 203 kts | 350° |
| 2026-05-04 20:21 | 42.76339 | -73.60780 | 4008 ft | 198 kts | 350° |
| 2026-05-04 20:21 | 42.77723 | -73.60861 | 4003 ft | 200 kts | 350° |
| 2026-05-04 20:21 | 42.80527 | -73.61098 | 3987 ft | 200 kts | 344° |
| 2026-05-04 20:22 | 42.81836 | -73.61668 | 4010 ft | 198 kts | 333° |
| 2026-05-04 20:22 | 42.83152 | -73.62298 | 4003 ft | 201 kts | 335° |
| 2026-05-04 20:22 | 42.84462 | -73.62893 | 4000 ft | 200 kts | 335° |
| 2026-05-04 20:22 | 42.85790 | -73.63489 | 3999 ft | 200 kts | 335° |
| 2026-05-04 20:23 | 42.86979 | -73.64386 | 3903 ft | 195 kts | 314° |
| 2026-05-04 20:23 | 42.87621 | -73.65988 | 3678 ft | 195 kts | 283° |
| 2026-05-04 20:23 | 42.87818 | -73.67776 | 3554 ft | 193 kts | 277° |
| 2026-05-04 20:23 | 42.88012 | -73.69596 | 3317 ft | 192 kts | 277° |
| 2026-05-04 20:24 | 42.88199 | -73.71372 | 3209 ft | 183 kts | 277° |
| 2026-05-04 20:24 | 42.88332 | -73.73059 | 3362 ft | 179 kts | 274° |
| 2026-05-04 20:24 | 42.88346 | -73.74731 | 3377 ft | 173 kts | 263° |
| 2026-05-04 20:24 | 42.87844 | -73.76153 | 3197 ft | 163 kts | 241° |
| 2026-05-04 20:25 | 42.87149 | -73.77332 | 3016 ft | 156 kts | 233° |
| 2026-05-04 20:25 | 42.86391 | -73.78391 | 2778 ft | 157 kts | 229° |
| 2026-05-04 20:25 | 42.85552 | -73.79391 | 2564 ft | 162 kts | 225° |
| 2026-05-04 20:25 | 42.84621 | -73.80248 | 2335 ft | 163 kts | 214° |
| 2026-05-04 20:26 | 42.83532 | -73.80768 | 1941 ft | 179 kts | 198° |
| 2026-05-04 20:26 | 42.82240 | -73.80899 | 1624 ft | 181 kts | 183° |
| 2026-05-04 20:26 | 42.81083 | -73.80780 | 1433 ft | 156 kts | 180° |
| 2026-05-04 20:26 | 42.80034 | -73.80644 | 1180 ft | 149 kts | 180° |
| 2026-05-04 20:27 | 42.79021 | -73.80564 | 941 ft | 144 kts | 181° |
| 2026-05-04 20:27 | 42.78003 | -73.80539 | 670 ft | 151 kts | 182° |
| 2026-05-04 20:27 | 42.76986 | -73.80555 | 496 ft | 141 kts | 179° |
| 2026-05-04 20:27 | 42.76007 | -73.80523 | 329 ft | 139 kts | 178° |
| 2026-05-04 20:28 | 42.75142 | -73.80496 | 294 ft | 104 kts | 178° |
| 2026-05-04 20:28 | 42.74682 | -73.80471 | 294 ft | 39 kts | 177° |
| 2026-05-04 20:28 | 42.74604 | -73.80544 | 294 ft | 12 kts | 259° |